Time;durP1;ratioP1;P1;durP2;ratioP2;P2;SDS_P1;SDS_P2;PMS_P1;PMS_P2;Temp;Humidity;BMP_temperature;BMP_pressure;BME280_temperature;BME280_humidity;BME280_pressure;Samples;Min_cycle;Max_cycle;Signal;HPM_P1;HPM_P2
2023/09/08 00:02:29;;;;;;;542.72;514.22;;;17.60;99.90;;;;;;5048455;28;20090;-70
2023/09/08 00:04:55;;;;;;;565.22;534.33;;;17.60;99.90;;;;;;5049649;28;20057;-70
2023/09/08 00:07:20;;;;;;;1999.90;999.90;;;17.60;99.90;;;;;;5046283;28;20063;-70
2023/09/08 00:09:46;;;;;;;1999.90;999.90;;;17.50;99.90;;;;;;5030658;28;20040;-70
2023/09/08 00:12:12;;;;;;;1999.90;999.90;;;17.50;99.90;;;;;;5052455;28;20124;-70
2023/09/08 00:14:38;;;;;;;1999.90;999.90;;;17.50;99.90;;;;;;5048763;28;20094;-70
2023/09/08 00:17:04;;;;;;;1999.90;999.90;;;17.40;99.90;;;;;;5053868;28;20032;-71
2023/09/08 00:19:30;;;;;;;1999.90;999.90;;;17.40;99.90;;;;;;5048237;28;20037;-69
2023/09/08 00:21:56;;;;;;;1999.90;999.90;;;17.40;99.90;;;;;;5051443;28;20036;-70
2023/09/08 00:24:22;;;;;;;1999.90;999.90;;;17.30;99.90;;;;;;5044530;28;20040;-69
2023/09/08 00:26:48;;;;;;;1999.90;999.90;;;17.30;99.90;;;;;;5050607;28;20040;-69
2023/09/08 00:29:13;;;;;;;1999.90;999.90;;;17.30;99.90;;;;;;5046008;28;20095;-70
2023/09/08 00:31:39;;;;;;;1999.90;999.90;;;17.30;99.90;;;;;;5061601;28;20156;-69
2023/09/08 00:34:05;;;;;;;1999.90;999.90;;;17.20;99.90;;;;;;5031138;28;20067;-70
2023/09/08 00:36:30;;;;;;;1999.90;999.90;;;17.20;99.90;;;;;;5033949;28;20099;-70
2023/09/08 00:38:56;;;;;;;1999.90;999.90;;;17.20;99.90;;;;;;5048468;28;20045;-69
2023/09/08 00:41:23;;;;;;;1999.90;999.90;;;17.20;99.90;;;;;;5035466;28;20496;-69
2023/09/08 00:43:49;;;;;;;1999.90;999.90;;;17.10;99.90;;;;;;5062699;28;20041;-70
2023/09/08 00:46:16;;;;;;;1999.90;999.90;;;17.10;99.90;;;;;;5050336;28;20037;-69
2023/09/08 00:48:42;;;;;;;1999.90;999.90;;;17.10;99.90;;;;;;5047049;28;20132;-70
2023/09/08 00:51:09;;;;;;;1999.90;999.90;;;17.00;99.90;;;;;;5047009;28;20144;-70
2023/09/08 00:53:36;;;;;;;1999.90;999.90;;;17.00;99.90;;;;;;5037907;28;20535;-69
2023/09/08 00:56:02;;;;;;;1999.90;999.90;;;17.00;99.90;;;;;;5061923;28;20421;-70
2023/09/08 00:58:29;;;;;;;1999.90;999.90;;;17.00;99.90;;;;;;5054955;28;20039;-69
2023/09/08 01:00:57;;;;;;;1999.90;999.90;;;16.90;99.90;;;;;;5050848;28;20124;-69
2023/09/08 01:03:23;;;;;;;1999.90;999.90;;;16.90;99.90;;;;;;5049507;28;20032;-69
2023/09/08 01:05:49;;;;;;;1999.90;999.90;;;16.90;99.90;;;;;;5048812;28;20067;-69
2023/09/08 01:08:16;;;;;;;1999.90;999.90;;;16.90;99.90;;;;;;5032943;28;20049;-69
2023/09/08 01:10:43;;;;;;;1999.90;999.90;;;16.80;99.90;;;;;;5037278;28;20530;-69
2023/09/08 01:13:09;;;;;;;1999.90;999.90;;;16.80;99.90;;;;;;5051977;28;20036;-69
2023/09/08 01:15:35;;;;;;;1999.90;999.90;;;16.70;99.90;;;;;;5051535;28;20103;-69
2023/09/08 01:18:00;;;;;;;1999.90;999.90;;;16.70;99.90;;;;;;5049417;28;20068;-69
2023/09/08 01:20:33;;;;;;;1999.90;999.90;;;16.70;99.90;;;;;;5053993;28;20843;-69
2023/09/08 01:23:21;;;;;;;1999.90;999.90;;;16.60;99.90;;;;;;5049449;28;20041;-70
2023/09/08 01:26:02;;;;;;;1999.90;999.90;;;16.60;99.90;;;;;;5053281;28;20111;-70
2023/09/08 01:28:28;;;;;;;1999.90;999.90;;;16.60;99.90;;;;;;5048597;28;20127;-69
2023/09/08 01:30:55;;;;;;;1999.90;999.90;;;16.60;99.90;;;;;;5051332;28;20037;-69
2023/09/08 01:33:22;;;;;;;1999.90;999.90;;;16.60;99.90;;;;;;5049743;28;20051;-70
2023/09/08 01:35:48;;;;;;;1999.90;999.90;;;16.60;99.90;;;;;;5069104;28;20051;-70
2023/09/08 01:38:14;;;;;;;1999.90;999.90;;;16.60;99.90;;;;;;5050357;28;20370;-69
2023/09/08 01:40:40;;;;;;;1999.90;999.90;;;16.60;99.90;;;;;;5030778;28;20045;-70
2023/09/08 01:43:05;;;;;;;1999.90;999.90;;;16.50;99.90;;;;;;5051440;28;20083;-70
2023/09/08 01:45:31;;;;;;;1999.90;999.90;;;16.50;99.90;;;;;;5051139;28;20041;-70
2023/09/08 01:47:56;;;;;;;1999.90;999.90;;;16.40;99.90;;;;;;5048677;28;20040;-70
2023/09/08 01:50:24;;;;;;;1999.90;999.90;;;16.40;99.90;;;;;;5057079;28;20036;-70
2023/09/08 01:52:50;;;;;;;1999.90;999.90;;;16.40;99.90;;;;;;5052234;28;20119;-70
2023/09/08 01:55:19;;;;;;;1999.90;999.90;;;16.30;99.90;;;;;;5032237;28;20048;-70
2023/09/08 01:57:44;;;;;;;1999.90;999.90;;;16.30;99.90;;;;;;5044858;28;20071;-70
2023/09/08 02:00:13;;;;;;;1999.90;999.90;;;16.30;99.90;;;;;;5046905;28;20032;-70
2023/09/08 02:02:39;;;;;;;1999.90;999.90;;;16.30;99.90;;;;;;5050044;28;20402;-70
2023/09/08 02:05:06;;;;;;;1999.90;999.90;;;16.20;99.90;;;;;;5055006;28;20173;-70
2023/09/08 02:07:31;;;;;;;1999.90;999.90;;;16.20;99.90;;;;;;5049880;28;20053;-70
2023/09/08 02:09:57;;;;;;;1999.90;999.90;;;16.20;99.90;;;;;;5051479;28;20508;-70
2023/09/08 02:12:23;;;;;;;1999.90;999.90;;;16.20;99.90;;;;;;5046298;28;20040;-70
2023/09/08 02:14:48;;;;;;;1999.90;999.90;;;16.20;99.90;;;;;;5053160;28;20029;-70
2023/09/08 02:17:14;;;;;;;1999.90;999.90;;;16.20;99.90;;;;;;5048860;28;20032;-69
2023/09/08 02:19:39;;;;;;;1999.90;999.90;;;16.10;99.90;;;;;;5052874;28;20477;-70
2023/09/08 02:22:05;;;;;;;1999.90;999.90;;;16.10;99.90;;;;;;5047591;28;20491;-70
2023/09/08 02:24:31;;;;;;;1999.90;999.90;;;16.10;99.90;;;;;;5051315;28;20098;-70
2023/09/08 02:26:56;;;;;;;1999.90;999.90;;;16.10;99.90;;;;;;5054634;28;20028;-70
2023/09/08 02:29:22;;;;;;;1999.90;999.90;;;16.10;99.90;;;;;;5051891;28;20041;-70
2023/09/08 02:31:48;;;;;;;1999.90;999.90;;;16.00;99.90;;;;;;5054617;28;20037;-70
2023/09/08 02:34:14;;;;;;;1999.90;999.90;;;16.00;99.90;;;;;;5049220;28;20033;-70
2023/09/08 02:36:40;;;;;;;1999.90;999.90;;;16.00;99.90;;;;;;5051899;28;20041;-70
2023/09/08 02:39:06;;;;;;;1999.90;999.90;;;15.90;99.90;;;;;;5057327;28;20633;-70
2023/09/08 02:41:32;;;;;;;1999.90;999.90;;;15.90;99.90;;;;;;5050297;28;20045;-70
2023/09/08 02:43:58;;;;;;;1999.90;999.90;;;15.90;99.90;;;;;;5046770;28;20086;-70
2023/09/08 02:46:23;;;;;;;1999.90;999.90;;;15.90;99.90;;;;;;5071470;28;20055;-70
2023/09/08 02:48:49;;;;;;;1999.90;999.90;;;15.80;99.90;;;;;;5052452;28;20048;-70
2023/09/08 02:51:14;;;;;;;1999.90;999.90;;;15.80;99.90;;;;;;5049284;28;20044;-70
2023/09/08 02:53:40;;;;;;;1999.90;999.90;;;15.80;99.90;;;;;;5051612;28;20052;-70
2023/09/08 02:56:06;;;;;;;1999.90;999.90;;;15.80;99.90;;;;;;5031790;28;20131;-70
2023/09/08 02:58:34;;;;;;;1999.90;999.90;;;15.80;99.90;;;;;;5055726;28;20075;-70
2023/09/08 03:01:12;;;;;;;1999.90;999.90;;;15.80;99.90;;;;;;5049180;28;20044;-70
2023/09/08 03:03:38;;;;;;;1999.90;999.90;;;15.70;99.90;;;;;;5046994;28;20033;-70
2023/09/08 03:06:03;;;;;;;1999.90;999.90;;;15.70;99.90;;;;;;5048521;28;20520;-70
2023/09/08 03:08:29;;;;;;;1999.90;999.90;;;15.70;99.90;;;;;;5050461;28;20448;-70
2023/09/08 03:10:59;;;;;;;1999.90;999.90;;;15.70;99.90;;;;;;5032059;28;20417;-70
2023/09/08 03:13:26;;;;;;;1999.90;999.90;;;15.80;99.90;;;;;;5043614;28;20040;-70
2023/09/08 03:15:52;;;;;;;1999.90;999.90;;;15.70;99.90;;;;;;5050511;28;20048;-70
2023/09/08 03:18:18;;;;;;;1999.90;999.90;;;15.70;99.90;;;;;;5051555;28;20082;-70
2023/09/08 03:20:47;;;;;;;1999.90;999.90;;;15.70;99.90;;;;;;5063887;28;20040;-70
2023/09/08 03:23:13;;;;;;;1999.90;999.90;;;15.70;99.90;;;;;;5035073;28;20519;-70
2023/09/08 03:25:38;;;;;;;1999.90;999.90;;;15.70;99.90;;;;;;5033933;28;20041;-70
2023/09/08 03:28:04;;;;;;;1999.90;999.90;;;15.60;99.90;;;;;;5054308;28;20141;-70
2023/09/08 03:30:30;;;;;;;1999.90;999.90;;;15.60;99.90;;;;;;5045898;28;20041;-70
2023/09/08 03:32:55;;;;;;;1999.90;999.90;;;15.60;99.90;;;;;;5052797;28;20032;-70
2023/09/08 03:35:21;;;;;;;1999.90;999.90;;;15.60;99.90;;;;;;5050333;28;20159;-70
2023/09/08 03:37:46;;;;;;;1999.90;999.90;;;15.50;99.90;;;;;;5032012;28;20036;-70
2023/09/08 03:40:12;;;;;;;1999.90;999.90;;;15.60;99.90;;;;;;5030088;28;21478;-70
2023/09/08 03:42:37;;;;;;;1999.90;999.90;;;15.50;99.90;;;;;;5057338;28;20040;-70
2023/09/08 03:45:04;;;;;;;1999.90;999.90;;;15.50;99.90;;;;;;5046503;28;20524;-70
2023/09/08 03:47:29;;;;;;;1999.90;999.90;;;15.50;99.90;;;;;;5035528;28;20109;-70
2023/09/08 03:49:55;;;;;;;1999.90;999.90;;;15.40;99.90;;;;;;5034986;28;20053;-69
2023/09/08 03:52:21;;;;;;;1999.90;999.90;;;15.50;99.90;;;;;;5046433;28;20049;-70
2023/09/08 03:54:46;;;;;;;1999.90;999.90;;;15.40;99.90;;;;;;5050195;28;20056;-70
2023/09/08 03:57:12;;;;;;;1999.90;999.90;;;15.40;99.90;;;;;;5045446;28;20075;-70
2023/09/08 03:59:37;;;;;;;1999.90;999.90;;;15.40;99.90;;;;;;5050531;28;20047;-70
2023/09/08 04:02:03;;;;;;;1999.90;999.90;;;15.30;99.90;;;;;;5044272;28;20774;-70
2023/09/08 04:04:29;;;;;;;1999.90;999.90;;;15.30;99.90;;;;;;5049983;28;20033;-69
2023/09/08 04:06:54;;;;;;;1999.90;999.90;;;15.30;99.90;;;;;;5049506;28;20489;-70
2023/09/08 04:09:20;;;;;;;1999.90;999.90;;;15.20;99.90;;;;;;5032908;28;20037;-69
2023/09/08 04:11:46;;;;;;;1999.90;999.90;;;15.20;99.90;;;;;;5052465;28;20136;-70
2023/09/08 04:14:11;;;;;;;1999.90;999.90;;;15.20;99.90;;;;;;5050279;28;20120;-70
2023/09/08 04:16:37;;;;;;;1999.90;999.90;;;15.20;99.90;;;;;;5045230;28;20135;-70
2023/09/08 04:19:03;;;;;;;1999.90;999.90;;;15.20;99.90;;;;;;5050443;28;20044;-70
2023/09/08 04:21:28;;;;;;;1999.90;999.90;;;15.20;99.90;;;;;;5048192;28;20565;-70
2023/09/08 04:23:54;;;;;;;1999.90;999.90;;;15.10;99.90;;;;;;5048644;28;20069;-69
2023/09/08 04:26:19;;;;;;;1999.90;999.90;;;15.10;99.90;;;;;;5046325;28;20094;-70
2023/09/08 04:28:45;;;;;;;1999.90;999.90;;;15.10;99.90;;;;;;5033465;28;20045;-70
2023/09/08 04:31:11;;;;;;;1999.90;999.90;;;15.10;99.90;;;;;;5034101;28;20037;-70
2023/09/08 04:33:36;;;;;;;1999.90;999.90;;;15.10;99.90;;;;;;5042595;28;20043;-70
2023/09/08 04:36:02;;;;;;;1999.90;999.90;;;15.00;99.90;;;;;;5032061;28;20047;-70
2023/09/08 04:38:28;;;;;;;1999.90;999.90;;;15.00;99.90;;;;;;5063269;28;20032;-70
2023/09/08 04:40:53;;;;;;;1999.90;999.90;;;15.00;99.90;;;;;;5048395;28;20123;-70
2023/09/08 04:43:19;;;;;;;1999.90;999.90;;;15.00;99.90;;;;;;5047456;28;20044;-70
2023/09/08 04:45:45;;;;;;;1999.90;999.90;;;15.00;99.90;;;;;;5045114;28;20048;-70
2023/09/08 04:48:11;;;;;;;1999.90;999.90;;;14.90;99.90;;;;;;5062336;28;20068;-70
2023/09/08 04:50:36;;;;;;;1999.90;999.90;;;14.90;99.90;;;;;;5048624;28;20496;-70
2023/09/08 04:53:02;;;;;;;1999.90;999.90;;;14.90;99.90;;;;;;5045475;28;20182;-70
2023/09/08 04:55:28;;;;;;;1999.90;999.90;;;14.90;99.90;;;;;;5044509;28;20053;-70
2023/09/08 04:57:54;;;;;;;1999.90;999.90;;;14.80;99.90;;;;;;5045222;28;20033;-70
2023/09/08 05:00:20;;;;;;;1999.90;999.90;;;14.80;99.90;;;;;;5047246;28;20089;-70
2023/09/08 05:02:45;;;;;;;1999.90;999.90;;;14.80;99.90;;;;;;5051923;28;20032;-71
2023/09/08 05:05:11;;;;;;;1999.90;999.90;;;14.80;99.90;;;;;;5045080;28;20113;-70
2023/09/08 05:07:36;;;;;;;1999.90;999.90;;;14.80;99.90;;;;;;5051064;28;20105;-70
2023/09/08 05:10:02;;;;;;;1999.90;999.90;;;14.80;99.90;;;;;;5039631;28;20043;-70
2023/09/08 05:12:28;;;;;;;1999.90;999.90;;;14.80;99.90;;;;;;5050073;28;20045;-70
2023/09/08 05:14:56;;;;;;;1999.90;999.90;;;14.80;99.90;;;;;;5050164;28;20481;-71
2023/09/08 05:17:24;;;;;;;1999.90;999.90;;;14.90;99.90;;;;;;5043243;28;20049;-70
2023/09/08 05:19:49;;;;;;;1999.90;999.90;;;14.90;99.90;;;;;;5061985;28;20186;-70
2023/09/08 05:22:15;;;;;;;1999.90;999.90;;;14.90;99.90;;;;;;5045922;28;20116;-70
2023/09/08 05:24:40;;;;;;;1999.90;999.90;;;15.00;99.90;;;;;;5052319;28;20033;-70
2023/09/08 05:27:06;;;;;;;1999.90;999.90;;;15.00;99.90;;;;;;5046941;28;20065;-70
2023/09/08 05:29:31;;;;;;;1999.90;999.90;;;15.10;99.90;;;;;;5041931;28;20040;-70
2023/09/08 05:31:57;;;;;;;1999.90;999.90;;;15.10;99.90;;;;;;5047531;28;20120;-70
2023/09/08 05:34:23;;;;;;;1999.90;999.90;;;15.20;99.90;;;;;;5044589;28;20033;-70
2023/09/08 05:36:48;;;;;;;1999.90;999.90;;;15.20;99.90;;;;;;5050410;28;20099;-70
2023/09/08 05:39:19;;;;;;;1999.90;999.90;;;15.20;99.90;;;;;;5055624;28;20507;-70
2023/09/08 05:41:45;;;;;;;1999.90;999.90;;;15.30;99.90;;;;;;5046973;28;20058;-70
2023/09/08 05:44:10;;;;;;;1999.90;999.90;;;15.30;99.90;;;;;;5048280;28;20048;-70
2023/09/08 05:46:36;;;;;;;1999.90;999.90;;;15.40;99.90;;;;;;5044685;28;20048;-70
2023/09/08 05:49:02;;;;;;;1999.90;999.90;;;15.40;99.90;;;;;;5046820;28;20041;-70
2023/09/08 05:51:27;;;;;;;1999.90;999.90;;;15.40;99.90;;;;;;5043246;28;20724;-70
2023/09/08 05:53:53;;;;;;;1999.90;999.90;;;15.50;99.90;;;;;;5041636;28;20037;-70
2023/09/08 05:56:19;;;;;;;1999.90;999.90;;;15.60;99.90;;;;;;5050487;28;20033;-70
2023/09/08 05:58:45;;;;;;;1999.90;999.90;;;15.60;99.90;;;;;;5049851;28;20492;-70
2023/09/08 06:01:11;;;;;;;1999.90;999.90;;;15.70;99.90;;;;;;5032846;28;20048;-70
2023/09/08 06:03:36;;;;;;;1999.90;999.90;;;15.80;99.90;;;;;;5031186;28;20128;-70
2023/09/08 06:06:02;;;;;;;1999.90;999.90;;;15.80;99.90;;;;;;5051746;28;20064;-70
2023/09/08 06:08:27;;;;;;;1999.90;999.90;;;15.90;99.90;;;;;;5048656;28;20071;-70
2023/09/08 06:10:53;;;;;;;1999.90;999.90;;;15.90;99.90;;;;;;5048738;28;20516;-70
2023/09/08 06:13:19;;;;;;;1999.90;999.90;;;16.00;99.90;;;;;;5051114;28;20420;-71
2023/09/08 06:15:44;;;;;;;1999.90;999.90;;;16.10;99.90;;;;;;5052021;28;20044;-70
2023/09/08 06:18:11;;;;;;;1999.90;999.90;;;16.10;99.90;;;;;;5047947;28;20037;-70
2023/09/08 06:20:36;;;;;;;1999.90;999.90;;;16.20;99.90;;;;;;5048090;28;20041;-70
2023/09/08 06:23:02;;;;;;;1999.90;999.90;;;16.30;99.90;;;;;;5052594;28;20111;-70
2023/09/08 06:25:30;;;;;;;1999.90;999.90;;;16.30;99.90;;;;;;5035919;28;20796;-70
2023/09/08 06:27:56;;;;;;;1999.90;999.90;;;16.40;99.90;;;;;;5062515;28;20136;-70
2023/09/08 06:30:21;;;;;;;1999.90;999.90;;;16.50;99.90;;;;;;5050580;28;20116;-70
2023/09/08 06:32:47;;;;;;;1999.90;999.90;;;16.60;99.90;;;;;;5051544;28;20036;-70
2023/09/08 06:35:13;;;;;;;1999.90;999.90;;;16.70;99.90;;;;;;5047042;28;20037;-70
2023/09/08 06:37:39;;;;;;;1999.90;999.90;;;16.80;99.90;;;;;;5038302;28;20036;-70
2023/09/08 06:40:05;;;;;;;1999.90;999.90;;;16.80;99.90;;;;;;5032145;28;20052;-70
2023/09/08 06:42:32;;;;;;;1999.90;999.90;;;17.00;99.90;;;;;;5042726;28;20490;-70
2023/09/08 06:44:59;;;;;;;1999.90;999.90;;;17.10;99.90;;;;;;5049107;28;20513;-70
2023/09/08 06:47:24;;;;;;;1999.90;999.90;;;17.20;99.90;;;;;;5061109;28;20176;-70
2023/09/08 06:49:50;;;;;;;1999.90;999.90;;;17.30;99.90;;;;;;5068332;28;20612;-71
2023/09/08 06:52:17;;;;;;;1999.90;999.90;;;17.30;99.90;;;;;;5067569;28;20109;-70
2023/09/08 06:54:42;;;;;;;1999.90;999.90;;;17.50;99.90;;;;;;5036509;28;20048;-70
2023/09/08 06:57:08;;;;;;;1999.90;999.90;;;17.60;99.90;;;;;;5049405;28;20040;-70
2023/09/08 06:59:33;;;;;;;1999.90;999.90;;;17.70;99.90;;;;;;5049400;28;20120;-70
2023/09/08 07:01:59;;;;;;;1999.90;999.90;;;17.80;99.90;;;;;;5052087;28;20048;-70
2023/09/08 07:04:24;;;;;;;1999.90;999.90;;;17.90;99.90;;;;;;5037419;28;20075;-70
2023/09/08 07:06:51;;;;;;;1999.90;999.90;;;18.00;99.90;;;;;;5045370;28;20140;-70
2023/09/08 07:09:17;;;;;;;1999.90;999.90;;;18.20;99.90;;;;;;5053725;28;20055;-70
2023/09/08 07:11:43;;;;;;;1999.90;999.90;;;18.30;99.90;;;;;;5047104;28;20041;-70
2023/09/08 07:14:08;;;;;;;1999.90;999.90;;;18.50;99.90;;;;;;5062026;28;20405;-70
2023/09/08 07:16:34;;;;;;;1999.90;999.90;;;18.60;99.90;;;;;;5055655;28;20037;-70
2023/09/08 07:19:01;;;;;;;1999.90;999.90;;;18.90;99.90;;;;;;5049515;28;20079;-70
2023/09/08 07:21:27;;;;;;;1999.90;999.90;;;19.60;99.90;;;;;;5040918;28;20028;-70
2023/09/08 07:23:53;;;;;;;1999.90;999.90;;;20.10;99.90;;;;;;5055668;28;20097;-70
2023/09/08 07:26:19;;;;;;;1999.90;999.90;;;20.30;99.90;;;;;;5047951;28;20051;-70
2023/09/08 07:28:45;;;;;;;1999.90;999.90;;;20.30;99.90;;;;;;5049246;28;20049;-70
2023/09/08 07:31:11;;;;;;;1999.90;999.90;;;20.20;99.90;;;;;;5061154;28;20151;-70
2023/09/08 07:33:37;;;;;;;1999.90;999.90;;;20.10;99.90;;;;;;5059809;28;20056;-71
2023/09/08 07:36:05;;;;;;;1999.90;999.90;;;20.10;99.90;;;;;;5058330;28;20052;-70
2023/09/08 07:38:31;;;;;;;1999.90;999.90;;;20.10;99.90;;;;;;5039539;28;20045;-70
2023/09/08 07:40:56;;;;;;;1999.90;999.90;;;20.10;99.90;;;;;;5048368;28;20040;-70
2023/09/08 07:43:22;;;;;;;1999.90;999.90;;;20.20;99.90;;;;;;5048011;28;20044;-70
2023/09/08 07:45:48;;;;;;;1999.90;999.90;;;20.40;99.90;;;;;;5050467;28;20052;-70
2023/09/08 07:48:13;;;;;;;1999.90;999.90;;;20.70;99.90;;;;;;5045485;28;20052;-70
2023/09/08 07:50:39;;;;;;;1999.90;999.90;;;21.10;99.90;;;;;;5033464;28;20045;-70
2023/09/08 07:53:04;;;;;;;1999.90;999.90;;;21.20;99.90;;;;;;5051057;28;20053;-71
2023/09/08 07:55:30;;;;;;;1999.90;999.90;;;21.20;99.90;;;;;;5029771;28;20048;-70
2023/09/08 07:57:57;;;;;;;1999.90;999.90;;;21.20;99.90;;;;;;5063189;28;20437;-70
2023/09/08 08:00:23;;;;;;;167.50;159.95;;;21.20;99.90;;;;;;5052317;28;20041;-71
2023/09/08 08:02:52;;;;;;;119.38;114.07;;;21.20;99.90;;;;;;5052235;28;20059;-71
2023/09/08 08:05:18;;;;;;;94.43;90.05;;;21.30;99.90;;;;;;5044457;28;20147;-70
2023/09/08 08:07:44;;;;;;;97.05;92.35;;;21.30;99.90;;;;;;5049110;28;20057;-71
2023/09/08 08:10:11;;;;;;;111.63;106.35;;;21.40;99.90;;;;;;5046695;28;20037;-71
2023/09/08 08:12:38;;;;;;;110.07;105.13;;;21.50;99.90;;;;;;5039954;28;20480;-70
2023/09/08 08:15:04;;;;;;;123.93;118.47;;;21.60;99.90;;;;;;5046829;28;20037;-70
2023/09/08 08:17:30;;;;;;;118.22;113.03;;;21.60;99.90;;;;;;5039225;28;20379;-71
2023/09/08 08:19:58;;;;;;;186.45;178.48;;;21.80;99.90;;;;;;5051317;28;20087;-70
2023/09/08 08:22:27;;;;;;;190.38;181.65;;;21.90;99.90;;;;;;5046964;28;20568;-70
2023/09/08 08:24:52;;;;;;;72.53;69.13;;;22.00;99.90;;;;;;5045684;28;20043;-70
2023/09/08 08:27:18;;;;;;;129.23;123.28;;;22.10;99.90;;;;;;5028934;28;20058;-71
2023/09/08 08:29:43;;;;;;;90.72;86.40;;;22.20;99.90;;;;;;5046217;28;20063;-70
2023/09/08 08:32:09;;;;;;;165.30;157.93;;;22.30;99.90;;;;;;5045087;28;20040;-71
2023/09/08 08:34:35;;;;;;;117.55;112.22;;;22.60;99.90;;;;;;5048877;28;20044;-70
2023/09/08 08:37:00;;;;;;;101.60;96.60;;;22.90;99.90;;;;;;5047891;28;20409;-70
2023/09/08 08:39:26;;;;;;;107.07;102.28;;;23.10;99.90;;;;;;5049231;28;20033;-70
2023/09/08 08:41:51;;;;;;;88.15;84.03;;;23.20;99.90;;;;;;5047123;28;20056;-70
2023/09/08 08:44:18;;;;;;;100.15;95.57;;;23.30;99.90;;;;;;5047814;28;20080;-70
2023/09/08 08:46:46;;;;;;;112.10;107.05;;;23.40;99.90;;;;;;5046269;28;20409;-70
2023/09/08 08:49:14;;;;;;;128.93;122.93;;;23.50;99.90;;;;;;5047112;28;20060;-71
2023/09/08 08:51:42;;;;;;;104.13;99.47;;;23.70;99.90;;;;;;5047094;28;20039;-70
2023/09/08 08:54:08;;;;;;;123.68;117.78;;;24.00;99.90;;;;;;5061880;28;20116;-71
2023/09/08 08:56:36;;;;;;;153.63;146.63;;;24.60;99.90;;;;;;5046473;28;20045;-71
2023/09/08 08:59:02;;;;;;;172.73;165.05;;;25.50;99.90;;;;;;5064114;28;20050;-71
2023/09/08 09:01:29;;;;;;;81.03;77.03;;;26.40;99.90;;;;;;5045699;28;20064;-71
2023/09/08 09:03:55;;;;;;;103.82;99.18;;;27.00;99.90;;;;;;5049631;28;20384;-71
2023/09/08 09:06:21;;;;;;;112.13;107.10;;;27.40;99.90;;;;;;5033024;28;20061;-70
2023/09/08 09:08:47;;;;;;;58.92;55.80;;;27.70;99.90;;;;;;5045796;28;20049;-71
2023/09/08 09:11:13;;;;;;;84.88;81.05;;;27.90;99.90;;;;;;5046377;28;20048;-70
2023/09/08 09:13:39;;;;;;;86.28;82.30;;;28.00;99.90;;;;;;5052627;28;20037;-71
2023/09/08 09:16:07;;;;;;;73.20;69.70;;;28.20;99.90;;;;;;5047255;28;20048;-71
2023/09/08 09:18:33;;;;;;;65.47;62.05;;;28.40;99.90;;;;;;5061071;28;20056;-71
2023/09/08 09:21:01;;;;;;;81.45;77.60;;;28.70;99.90;;;;;;5045439;28;20037;-71
2023/09/08 09:23:36;;;;;;;41.88;39.63;;;28.80;99.90;;;;;;5046496;28;20036;-71
2023/09/08 09:26:05;;;;;;;67.05;63.90;;;29.00;99.90;;;;;;5049973;28;20062;-71
2023/09/08 09:28:31;;;;;;;49.63;47.17;;;29.10;99.90;;;;;;5045669;28;20048;-71
2023/09/08 09:30:57;;;;;;;63.65;60.35;;;29.20;99.90;;;;;;5052691;28;20147;-71
2023/09/08 09:33:23;;;;;;;49.50;46.90;;;29.20;99.90;;;;;;5051122;28;20076;-71
2023/09/08 09:35:59;;;;;;;61.03;58.08;;;29.30;99.90;;;;;;5065955;28;20057;-71
2023/09/08 09:38:27;;;;;;;70.03;66.65;;;29.30;99.90;;;;;;5051344;28;20437;-71
2023/09/08 09:40:52;;;;;;;71.50;68.05;;;29.30;99.90;;;;;;5061645;28;20046;-71
2023/09/08 09:43:22;;;;;;;94.25;89.85;;;29.20;99.90;;;;;;5024261;28;20086;-71
2023/09/08 09:45:48;;;;;;;93.18;89.03;;;29.20;99.90;;;;;;5036205;28;20929;-71
2023/09/08 09:48:13;;;;;;;117.15;111.68;;;29.30;99.90;;;;;;5049251;28;20140;-71
2023/09/08 09:50:41;;;;;;;113.18;107.97;;;29.20;99.90;;;;;;5030949;28;20029;-71
2023/09/08 09:53:14;;;;;;;127.03;121.22;;;29.10;99.20;;;;;;5048302;28;20040;-71
2023/09/08 09:55:42;;;;;;;117.75;112.57;;;28.90;97.70;;;;;;5064365;28;20397;-71
2023/09/08 09:58:10;;;;;;;117.63;112.20;;;28.90;99.90;;;;;;5039876;28;20382;-71
2023/09/08 10:00:37;;;;;;;126.45;120.88;;;29.00;99.90;;;;;;5052645;28;20090;-71
2023/09/08 10:03:04;;;;;;;118.80;113.25;;;29.20;99.90;;;;;;5048533;28;20072;-71
2023/09/08 10:05:30;;;;;;;120.78;115.53;;;29.30;99.90;;;;;;5029474;28;20146;-71
2023/09/08 10:07:56;;;;;;;115.82;110.68;;;29.40;99.90;;;;;;5048686;28;20460;-71
2023/09/08 10:10:22;;;;;;;113.78;108.65;;;29.50;99.40;;;;;;5029624;28;20057;-71
2023/09/08 10:12:57;;;;;;;94.32;90.05;;;29.50;98.60;;;;;;5047377;28;20049;-71
2023/09/08 10:15:24;;;;;;;113.55;108.60;;;29.40;97.40;;;;;;5036850;28;20528;-71
2023/09/08 10:17:55;;;;;;;98.07;93.53;;;29.40;98.40;;;;;;5043938;28;20041;-71
2023/09/08 10:20:26;;;;;;;117.38;111.82;;;29.50;98.10;;;;;;5047658;28;20036;-71
2023/09/08 10:23:12;;;;;;;84.60;80.68;;;29.60;98.80;;;;;;5041668;28;20163;-71
2023/09/08 10:25:43;;;;;;;121.82;116.35;;;29.80;97.50;;;;;;5046217;28;20090;-71
2023/09/08 10:28:09;;;;;;;94.40;90.00;;;30.00;98.50;;;;;;5061311;28;20066;-71
2023/09/08 10:30:35;;;;;;;97.30;93.05;;;30.10;98.10;;;;;;5029616;28;20044;-71
2023/09/08 10:33:02;;;;;;;91.30;87.20;;;30.20;98.00;;;;;;5048955;28;20108;-71
2023/09/08 10:35:28;;;;;;;114.97;109.63;;;30.30;98.30;;;;;;5044552;28;20132;-71
2023/09/08 10:38:26;;;;;;;59.13;56.28;;;30.50;98.00;;;;;;5041045;28;20075;-71
2023/09/08 10:41:23;;;;;;;96.68;92.40;;;30.70;97.80;;;;;;5048592;28;20037;-71
2023/09/08 10:43:56;;;;;;;95.07;90.85;;;30.70;96.70;;;;;;5045549;28;20640;-71
2023/09/08 10:46:25;;;;;;;47.70;45.15;;;30.80;97.70;;;;;;5051183;28;20067;-71
2023/09/08 10:48:54;;;;;;;53.03;50.30;;;30.90;96.60;;;;;;5031002;28;20041;-71
2023/09/08 10:51:23;;;;;;;49.40;46.85;;;30.80;95.80;;;;;;5056635;28;20086;-71
2023/09/08 10:53:52;;;;;;;71.18;67.85;;;30.80;96.00;;;;;;5042145;28;20488;-71
2023/09/08 10:56:18;;;;;;;54.20;51.40;;;30.90;96.90;;;;;;5043301;28;20497;-71
2023/09/08 10:58:49;;;;;;;84.82;81.03;;;31.00;95.90;;;;;;5029944;28;20401;-71
2023/09/08 11:01:27;;;;;;;50.03;47.47;;;31.00;96.30;;;;;;5053226;28;20120;-71
2023/09/08 11:03:53;;;;;;;66.57;63.40;;;31.10;95.40;;;;;;5056854;28;20054;-70
2023/09/08 11:06:23;;;;;;;71.93;68.47;;;31.10;96.00;;;;;;5054429;28;20128;-71
2023/09/08 11:08:52;;;;;;;32.00;30.08;;;31.20;96.60;;;;;;5047278;28;20036;-71
2023/09/08 11:11:18;;;;;;;30.55;28.85;;;31.40;94.90;;;;;;5047720;28;20053;-71
2023/09/08 11:13:47;;;;;;;27.75;26.08;;;31.40;95.10;;;;;;5056929;28;20048;-71
2023/09/08 11:16:15;;;;;;;20.15;18.85;;;31.40;95.30;;;;;;5051148;28;20033;-71
2023/09/08 11:18:42;;;;;;;22.92;21.23;;;31.50;94.90;;;;;;5061509;28;20230;-69
2023/09/08 11:21:09;;;;;;;62.05;58.97;;;31.50;94.90;;;;;;5049367;28;20047;-71
2023/09/08 11:23:35;;;;;;;18.05;16.75;;;31.60;96.20;;;;;;5059954;28;20132;-69
2023/09/08 11:26:01;;;;;;;19.58;18.27;;;31.70;95.60;;;;;;5047607;28;20072;-69
2023/09/08 11:28:28;;;;;;;29.52;27.83;;;31.90;94.90;;;;;;5044703;28;20040;-69
2023/09/08 11:30:55;;;;;;;19.88;18.48;;;32.00;95.70;;;;;;5063845;28;20067;-69
2023/09/08 11:33:25;;;;;;;31.75;29.95;;;32.20;94.30;;;;;;5047390;28;20075;-69
2023/09/08 11:35:52;;;;;;;21.60;20.02;;;32.20;95.40;;;;;;5062953;28;20052;-69
2023/09/08 11:38:19;;;;;;;19.73;18.30;;;32.30;94.60;;;;;;5061260;28;20036;-69
2023/09/08 11:40:44;;;;;;;20.33;18.88;;;32.30;94.40;;;;;;5032587;28;20117;-69
2023/09/08 11:43:11;;;;;;;17.33;16.13;;;32.30;94.60;;;;;;5051824;28;20159;-69
2023/09/08 11:45:37;;;;;;;16.40;15.30;;;32.40;94.00;;;;;;5053925;28;20583;-69
2023/09/08 11:48:04;;;;;;;16.58;15.27;;;32.50;94.10;;;;;;5049560;28;20044;-69
2023/09/08 11:50:30;;;;;;;15.25;14.05;;;32.60;93.00;;;;;;5050309;28;20079;-69
2023/09/08 11:52:58;;;;;;;18.83;17.50;;;32.50;92.40;;;;;;5045240;28;20044;-69
2023/09/08 11:55:25;;;;;;;17.23;16.08;;;32.40;93.00;;;;;;5064254;28;20493;-69
2023/09/08 11:58:02;;;;;;;18.33;16.83;;;32.40;92.40;;;;;;5034360;28;20041;-69
2023/09/08 12:00:29;;;;;;;30.85;29.25;;;32.40;92.30;;;;;;5030433;28;20041;-69
2023/09/08 12:02:54;;;;;;;24.55;22.95;;;32.40;93.30;;;;;;5049615;28;20094;-69
2023/09/08 12:05:22;;;;;;;20.48;19.08;;;32.50;92.60;;;;;;5044667;28;20052;-69